Pont Aven — FNPN — position and weather

sailwx.info

Track history (hours):
 
Tides and Currents Weather Stations Pressure Air Temp Water Temp Dewpoint Dewpoint Depression Visibility Wind Speed Wind Dir Waves Ship Positions

Pont Aven

Last reported at 2018-May-22 05:53 UTC. Time now 2018-May-22 06:24 UTC.
Position N 49°05' W 004°04'.

Length 185 m; beam 31 m.

Type: Passenger vessel. MMSI: 228183600.

Date/timePositionNaut miles runAvg speedWind from/ knotsBaromVisibWave heightAir tempDewpointWater temp
2018-May-22 05:53N 49°05' W 004°04'1022.4
2018-May-22 05:26N 48°58' W 004°15'922.3
2018-May-22 05:00N 48°51' W 004°25'1122.1
2018-May-22 04:31N 48°44' W 004°37'1122.1
2018-May-22 04:00N 48°36' W 004°49'1121.1
2018-May-22 03:30N 48°28' W 004°60'917.5
2018-May-22 03:00N 48°21' W 005°07'1122.7
2018-May-22 02:30N 48°09' W 005°11'1121.9
2018-May-22 01:59N 47°58' W 005°11'1022.0
2018-May-22 01:31N 47°48' W 005°08'1121.7
2018-May-22 01:00N 47°37' W 005°04'1119.5
2018-May-22 00:28N 47°27' W 005°01'1019.8
2018-May-21 23:59N 47°17' W 004°58'1319.1
2018-May-21 23:19N 47°05' W 004°53'2522.6
2018-May-21 22:13N 46°41' W 004°45'1022.9
2018-May-21 21:47N 46°31' W 004°40'5623.1
2018-May-21 19:20N 45°36' W 004°26'823.5
2018-May-21 19:00N 45°28' W 004°23'1123.2
2018-May-21 18:30N 45°17' W 004°19'1223.1
2018-May-21 18:00N 45°06' W 004°15'8122.9
2018-May-21 14:29N 43°47' W 003°51'1122.9
2018-May-21 14:00N 43°37' W 003°47'9 3.8
2018-May-21 11:37N 43°28' W 003°48'0 0.0
2018-May-21 11:29N 43°28' W 003°48'0 0.0
2018-May-21 10:31N 43°28' W 003°48'4 4.2
2018-May-21 09:32N 43°31' W 003°46'122.3
2018-May-21 09:30N 43°32' W 003°46'1222.3
2018-May-21 08:59N 43°43' W 003°49'1122.4
2018-May-21 08:30N 43°53' W 003°52'1122.4
2018-May-21 08:01N 44°04' W 003°56'1223.1
2018-May-21 07:30N 44°16' W 003°59'1223.1
2018-May-21 07:00N 44°27' W 004°02'7923.4
2018-May-21 03:39N 45°44' W 004°27'6423.5
2018-May-21 00:56N 46°46' W 004°47'3223.3
2018-May-20 23:32N 47°18' W 004°57'123.4
2018-May-20 23:30N 47°18' W 004°57'1623.7
2018-May-20 22:49N 47°34' W 005°03'723.9
2018-May-20 22:31N 47°41' W 005°05'1223.9
2018-May-20 22:01N 47°53' W 005°09'1223.8
2018-May-20 21:30N 48°05' W 005°10'1223.2
2018-May-20 21:00N 48°16' W 005°08'1020.2
2018-May-20 20:30N 48°26' W 005°03'918.2
2018-May-20 20:00N 48°34' W 004°57'1121.9
2018-May-20 19:30N 48°45' W 004°51'1121.7
2018-May-20 19:00N 48°55' W 004°47'1122.1
2018-May-20 18:30N 49°06' W 004°42'1122.5
2018-May-20 18:00N 49°16' W 004°37'1122.8
2018-May-20 17:31N 49°27' W 004°31'3323.1
2018-May-20 16:05N 49°59' W 004°16'423.1
2018-May-20 15:53N 50°03' W 004°14'923.0
2018-May-20 15:30N 50°12' W 004°13'918.9
2018-May-20 15:00N 50°21' W 004°09'1 2.4
2018-May-20 14:30N 50°22' W 004°09'0 0.0
2018-May-20 14:00N 50°22' W 004°09'0 0.0
2018-May-20 13:30N 50°22' W 004°09'0 0.0
2018-May-20 13:00N 50°22' W 004°09'0 0.0
2018-May-20 12:30N 50°22' W 004°09'0 0.9
2018-May-20 12:00N 50°21' W 004°09'714.3
2018-May-20 11:30N 50°14' W 004°09'1223.5
2018-May-20 11:00N 50°03' W 004°07'1223.7
2018-May-20 10:30N 49°51' W 004°06'1523.7
2018-May-20 09:53N 49°36' W 004°03'1523.8
2018-May-20 09:14N 49°21' W 004°02'523.9
2018-May-20 09:00N 49°15' W 004°01'1223.7
2018-May-20 08:29N 49°03' W 003°59'1423.6
2018-May-20 07:54N 48°49' W 003°57'615.6
2018-May-20 07:30N 48°43' W 003°58'0 0.1
2018-May-20 04:46N 48°43' W 003°58'2 6.3
2018-May-20 04:30N 48°45' W 003°57'1020.1
2018-May-20 04:00N 48°53' W 004°07'1222.2
2018-May-20 03:29N 48°60' W 004°21'919.7
2018-May-20 03:00N 49°06' W 004°31'1020.0
2018-May-20 02:30N 49°13' W 004°42'1219.9
2018-May-20 01:55N 49°21' W 004°55'1319.8
2018-May-20 01:16N 49°29' W 005°10'519.8
2018-May-20 01:00N 49°33' W 005°16'1119.9
2018-May-20 00:26N 49°40' W 005°29'1020.0
2018-May-19 23:56N 49°47' W 005°41'1320.5
2018-May-19 23:19N 49°55' W 005°56'7620.1
2018-May-19 19:30N 50°58' W 007°03'1020.8
2018-May-19 19:00N 51°06' W 007°14'1020.8
2018-May-19 18:30N 51°13' W 007°26'1120.8
2018-May-19 18:00N 51°21' W 007°38'1120.8
2018-May-19 17:27N 51°29' W 007°51'920.7
2018-May-19 17:00N 51°35' W 008°01'1020.5
2018-May-19 16:30N 51°43' W 008°12'714.0
2018-May-19 16:01N 51°50' W 008°16'2 4.4
2018-May-19 15:31N 51°50' W 008°20'0 0.3
2018-May-19 15:01N 51°50' W 008°19'0 0.0
2018-May-19 14:31N 51°50' W 008°19'0 0.0
2018-May-19 14:01N 51°50' W 008°19'0 0.0
2018-May-19 13:30N 51°50' W 008°19'0 0.0
2018-May-19 13:00N 51°50' W 008°19'0 0.0
2018-May-19 12:30N 51°50' W 008°19'0 0.0
2018-May-19 12:01N 51°50' W 008°19'0 0.0
2018-May-19 11:31N 51°50' W 008°19'0 0.0
2018-May-19 11:00N 51°50' W 008°19'0 0.0
2018-May-19 10:31N 51°50' W 008°19'0 0.0
2018-May-19 10:01N 51°50' W 008°19'0 0.0
2018-May-19 09:30N 51°50' W 008°19'0 0.0
2018-May-19 09:01N 51°50' W 008°19'0 0.0
2018-May-19 08:31N 51°50' W 008°19'1 2.2
2018-May-19 08:00N 51°51' W 008°18'3 6.5
2018-May-19 07:31N 51°48' W 008°16'1019.6
2018-May-19 07:01N 51°40' W 008°06'1019.9
2018-May-19 06:30N 51°33' W 007°54'1020.5
2018-May-19 06:00N 51°27' W 007°42'1020.2
2018-May-19 05:30N 51°20' W 007°30'1020.2
2018-May-19 05:01N 51°13' W 007°18'1020.1
2018-May-19 04:31N 51°06' W 007°07'1020.2
2018-May-19 04:00N 50°58' W 006°56'1020.3
2018-May-19 03:30N 50°51' W 006°44'1020.2
2018-May-19 03:00N 50°44' W 006°33'1020.2
2018-May-19 02:30N 50°38' W 006°21'1020.1
2018-May-19 02:00N 50°31' W 006°09'1020.4
2018-May-19 01:30N 50°24' W 005°58'1019.9
2018-May-19 01:00N 50°14' W 005°54'1020.1
2018-May-19 00:31N 50°04' W 005°52'1019.1
2018-May-19 00:00N 49°56' W 005°45'1020.5
2018-May-18 23:30N 49°49' W 005°34'1120.3
2018-May-18 22:59N 49°41' W 005°22'1020.2
2018-May-18 22:30N 49°34' W 005°11'1020.3
2018-May-18 22:00N 49°28' W 004°59'1020.2
2018-May-18 21:30N 49°21' W 004°48'1019.9
2018-May-18 21:00N 49°14' W 004°37'1019.8
2018-May-18 20:30N 49°06' W 004°27'1019.5
2018-May-18 20:00N 48°59' W 004°16'919.3
2018-May-18 19:30N 48°53' W 004°06'1018.1
2018-May-18 18:57N 48°45' W 003°57'1 0.1
2018-May-18 07:59N 48°43' W 003°58'0 0.0
2018-May-18 07:29N 48°43' W 003°58'0 0.0
2018-May-18 06:14N 48°43' W 003°58'0 0.0
2018-May-18 05:59N 48°43' W 003°58'2 4.4
2018-May-18 05:26N 48°46' W 003°57'716.9
2018-May-18 05:00N 48°53' W 003°58'816.4
2018-May-18 04:31N 49°01' W 003°59'816.0
2018-May-18 04:00N 49°09' W 003°60'815.9
2018-May-18 03:31N 49°17' W 004°01'815.8
2018-May-18 03:00N 49°25' W 004°03'815.8
2018-May-18 02:30N 49°32' W 004°06'815.6
2018-May-18 02:00N 49°40' W 004°07'1116.1
2018-May-18 01:19N 49°51' W 004°07'616.2
2018-May-18 00:57N 49°57' W 004°08'816.1
2018-May-18 00:28N 50°05' W 004°08'715.8
2018-May-18 00:00N 50°12' W 004°09'2 3.2
2018-May-17 23:21N 50°14' W 004°10'1 0.6
2018-May-17 22:15N 50°14' W 004°09'0 0.3
2018-May-17 22:00N 50°14' W 004°09'0 0.2
2018-May-17 21:30N 50°14' W 004°09'0 0.3
2018-May-17 21:00N 50°14' W 004°09'2 4.5
2018-May-17 20:28N 50°17' W 004°09'4 8.8
2018-May-17 20:00N 50°21' W 004°09'1 2.2
2018-May-17 19:30N 50°22' W 004°09'0 0.0
2018-May-17 19:00N 50°22' W 004°09'0 0.0
2018-May-17 18:31N 50°22' W 004°09'0 0.0
2018-May-17 18:00N 50°22' W 004°09'0 0.0
2018-May-17 17:30N 50°22' W 004°09'0 0.0
2018-May-17 17:00N 50°22' W 004°09'0 0.0
2018-May-17 16:30N 50°22' W 004°09'0 0.2
2018-May-17 16:00N 50°22' W 004°09'3 6.4
2018-May-17 15:30N 50°19' W 004°10'1122.8
2018-May-17 15:01N 50°08' W 004°15'1622.8
2018-May-17 14:18N 49°52' W 004°22'722.6
2018-May-17 14:00N 49°46' W 004°25'1122.3
2018-May-17 13:30N 49°35' W 004°30'1222.1
2018-May-17 12:59N 49°24' W 004°35'1221.7
2018-May-17 12:27N 49°13' W 004°40'1021.5
2018-May-17 12:00N 49°04' W 004°44'1821.0
2018-May-17 11:08N 48°46' W 004°52'320.6
2018-May-17 11:00N 48°44' W 004°53'1020.4
2018-May-17 10:30N 48°34' W 004°57'917.7
2018-May-17 10:00N 48°26' W 005°03'1019.4
2018-May-17 09:30N 48°17' W 005°08'1121.8
2018-May-17 09:00N 48°06' W 005°10'1120.5
2018-May-17 08:28N 47°55' W 005°07'1121.7
2018-May-17 07:56N 47°44' W 005°04'24422.9
2018-May-16 21:16N 43°45' W 003°50'723.6
2018-May-16 20:57N 43°38' W 003°47'7 1.8
2018-May-16 17:09N 43°31' W 003°45'423.1
2018-May-16 17:00N 43°34' W 003°46'1223.4
2018-May-16 16:30N 43°46' W 003°50'26923.6
2018-May-16 05:08N 48°09' W 005°10'422.5
2018-May-16 04:57N 48°13' W 005°09'1022.0
2018-May-16 04:30N 48°23' W 005°06'917.5
2018-May-16 04:00N 48°29' W 004°58'1021.0
2018-May-16 03:30N 48°37' W 004°47'1020.0
2018-May-16 03:00N 48°44' W 004°37'3021.9
2018-May-16 01:39N 49°07' W 004°07'323.5
2018-May-16 01:30N 49°09' W 004°03'4624.2
2018-May-15 23:36N 49°44' W 003°18'224.3
2018-May-15 23:30N 49°46' W 003°15'1224.2
2018-May-15 23:01N 49°55' W 003°03'1223.1
2018-May-15 22:30N 50°01' W 002°47'1122.3
2018-May-15 22:00N 50°05' W 002°31'2120.7
2018-May-15 21:00N 50°13' W 002°01'1019.7
2018-May-15 20:30N 50°18' W 001°48'1019.7
2018-May-15 20:00N 50°23' W 001°34'1019.5
2018-May-15 19:30N 50°28' W 001°22'919.0
2018-May-15 19:00N 50°33' W 001°09'918.2
2018-May-15 18:30N 50°40' W 000°59'816.6
2018-May-15 18:00N 50°47' W 001°06'2 4.2
2018-May-15 17:30N 50°49' W 001°06'0 0.0
2018-May-15 17:00N 50°49' W 001°06'0 0.0
2018-May-15 16:30N 50°49' W 001°06'0 0.0
2018-May-15 16:00N 50°49' W 001°06'0 0.0
2018-May-15 15:30N 50°49' W 001°06'0 0.0
2018-May-15 15:00N 50°49' W 001°06'0 0.2
2018-May-15 14:31N 50°49' W 001°06'3 6.1
2018-May-15 14:00N 50°46' W 001°05'713.4
2018-May-15 13:30N 50°39' W 001°05'918.9
2018-May-15 13:00N 50°31' W 001°11'1019.9
2018-May-15 12:30N 50°23' W 001°22'1020.5
2018-May-15 12:00N 50°17' W 001°35'1121.3
2018-May-15 11:30N 50°10' W 001°48'1121.9
2018-May-15 11:00N 50°05' W 002°02'1122.7
2018-May-15 10:31N 49°59' W 002°18'1223.3
2018-May-15 10:00N 49°54' W 002°34'1223.4
2018-May-15 09:30N 49°49' W 002°50'1323.1
2018-May-15 08:58N 49°41' W 003°06'1123.4
2018-May-15 08:31N 49°34' W 003°18'1323.3
2018-May-15 07:57N 49°25' W 003°32'4123.4
2018-May-15 06:13N 48°57' W 004°16'1423.8
2018-May-15 05:37N 48°47' W 004°32'324.0
2018-May-15 05:29N 48°44' W 004°35'1124.1
2018-May-15 05:00N 48°37' W 004°48'1122.5
2018-May-15 04:30N 48°28' W 004°59'917.5
2018-May-15 04:01N 48°21' W 005°07'1223.8
2018-May-15 03:31N 48°09' W 005°10'1323.6
2018-May-15 02:59N 47°57' W 005°09'1123.5
2018-May-15 02:30N 47°46' W 005°06'1122.8
2018-May-15 02:00N 47°35' W 005°01'1222.9
2018-May-15 01:29N 47°23' W 004°57'1322.9
2018-May-15 00:55N 47°11' W 004°53'1122.9
2018-May-15 00:28N 47°00' W 004°49'1022.7
2018-May-15 00:00N 46°50' W 004°46'1122.8
2018-May-14 23:30N 46°39' W 004°43'18422.0
2018-May-14 15:06N 43°39' W 003°48'321.9
2018-May-14 14:59N 43°36' W 003°48'5 1.2
2018-May-14 10:54N 43°32' W 003°45'1222.7
2018-May-14 10:22N 43°43' W 003°50'25722.5
2018-May-13 22:58N 47°54' W 005°07'1120.6
2018-May-13 22:25N 48°05' W 005°10'819.4
2018-May-13 22:00N 48°13' W 005°08'1018.7
2018-May-13 21:30N 48°23' W 005°06'713.9
2018-May-13 21:01N 48°28' W 004°60'1122.1
2018-May-13 20:31N 48°38' W 004°54'1224.2
2018-May-13 20:01N 48°49' W 004°47'2423.3
2018-May-13 18:58N 49°12' W 004°35'5122.0
2018-May-13 16:40N 50°02' W 004°18'421.5
2018-May-13 16:28N 50°06' W 004°16'1121.7
2018-May-13 15:57N 50°17' W 004°11'511.4
2018-May-13 15:31N 50°22' W 004°09'0 0.1
2018-May-13 15:01N 50°22' W 004°09'0 0.0
2018-May-13 14:30N 50°22' W 004°09'0 0.0
2018-May-13 14:01N 50°22' W 004°09'0 0.0
2018-May-13 13:31N 50°22' W 004°09'0 0.0
2018-May-13 13:01N 50°22' W 004°09'0 0.3
2018-May-13 12:31N 50°22' W 004°09'4 7.4
2018-May-13 12:00N 50°18' W 004°10'1121.9
2018-May-13 11:30N 50°07' W 004°12'160 8.7
2018-May-12 17:05N 51°27' W 007°50'220.2
2018-May-12 17:01N 51°29' W 007°51'1019.5
2018-May-12 16:31N 51°36' W 008°01'1121.1
2018-May-12 16:00N 51°44' W 008°13'713.5
2018-May-12 15:30N 51°50' W 008°16'2 4.7
2018-May-12 15:00N 51°50' W 008°19'0 0.0
2018-May-12 14:30N 51°50' W 008°19'0 0.0
2018-May-12 14:00N 51°50' W 008°19'0 0.0
2018-May-12 13:30N 51°50' W 008°19'0 0.0
2018-May-12 13:00N 51°50' W 008°19'0 0.0
2018-May-12 12:30N 51°50' W 008°19'0 0.0
2018-May-12 12:00N 51°50' W 008°19'0 0.0
2018-May-12 11:30N 51°50' W 008°19'0 0.0
2018-May-12 11:00N 51°50' W 008°19'0 0.0
2018-May-12 10:30N 51°50' W 008°19'0 0.0
2018-May-12 10:00N 51°50' W 008°19'0 0.0
2018-May-12 09:30N 51°50' W 008°19'0 0.0
2018-May-12 09:00N 51°50' W 008°19'1 1.1
2018-May-12 08:30N 51°50' W 008°19'4 7.1
2018-May-12 08:00N 51°48' W 008°16'1019.6
2018-May-12 07:31N 51°40' W 008°07'919.0
2018-May-12 07:00N 51°33' W 007°55'1019.9
2018-May-12 06:30N 51°27' W 007°43'  
Track history (hours):
 
Tides and Currents Weather Stations Pressure Air Temp Water Temp Dewpoint Dewpoint Depression Visibility Wind Speed Wind Dir Waves Ship Positions

Pont Aven

Last reported at 2018-May-22 05:53 UTC. Time now 2018-May-22 06:24 UTC.
Position N 49°05' W 004°04'.

Length 185 m; beam 31 m.

Type: Passenger vessel. MMSI: 228183600.

Date/timePositionNaut miles runAvg speedWind from/ knotsBaromVisibWave heightAir tempDewpointWater temp
2018-May-22 05:53N 49°05' W 004°04'1022.4
2018-May-22 05:26N 48°58' W 004°15'922.3
2018-May-22 05:00N 48°51' W 004°25'1122.1
2018-May-22 04:31N 48°44' W 004°37'1122.1
2018-May-22 04:00N 48°36' W 004°49'1121.1
2018-May-22 03:30N 48°28' W 004°60'917.5
2018-May-22 03:00N 48°21' W 005°07'1122.7
2018-May-22 02:30N 48°09' W 005°11'1121.9
2018-May-22 01:59N 47°58' W 005°11'1022.0
2018-May-22 01:31N 47°48' W 005°08'1121.7
2018-May-22 01:00N 47°37' W 005°04'1119.5
2018-May-22 00:28N 47°27' W 005°01'1019.8
2018-May-21 23:59N 47°17' W 004°58'1319.1
2018-May-21 23:19N 47°05' W 004°53'2522.6
2018-May-21 22:13N 46°41' W 004°45'1022.9
2018-May-21 21:47N 46°31' W 004°40'5623.1
2018-May-21 19:20N 45°36' W 004°26'823.5
2018-May-21 19:00N 45°28' W 004°23'1123.2
2018-May-21 18:30N 45°17' W 004°19'1223.1
2018-May-21 18:00N 45°06' W 004°15'8122.9
2018-May-21 14:29N 43°47' W 003°51'1122.9
2018-May-21 14:00N 43°37' W 003°47'9 3.8
2018-May-21 11:37N 43°28' W 003°48'0 0.0
2018-May-21 11:29N 43°28' W 003°48'0 0.0
2018-May-21 10:31N 43°28' W 003°48'4 4.2
2018-May-21 09:32N 43°31' W 003°46'122.3
2018-May-21 09:30N 43°32' W 003°46'1222.3
2018-May-21 08:59N 43°43' W 003°49'1122.4
2018-May-21 08:30N 43°53' W 003°52'1122.4
2018-May-21 08:01N 44°04' W 003°56'1223.1
2018-May-21 07:30N 44°16' W 003°59'1223.1
2018-May-21 07:00N 44°27' W 004°02'7923.4
2018-May-21 03:39N 45°44' W 004°27'6423.5
2018-May-21 00:56N 46°46' W 004°47'3223.3
2018-May-20 23:32N 47°18' W 004°57'123.4
2018-May-20 23:30N 47°18' W 004°57'1623.7
2018-May-20 22:49N 47°34' W 005°03'723.9
2018-May-20 22:31N 47°41' W 005°05'1223.9
2018-May-20 22:01N 47°53' W 005°09'1223.8
2018-May-20 21:30N 48°05' W 005°10'1223.2
2018-May-20 21:00N 48°16' W 005°08'1020.2
2018-May-20 20:30N 48°26' W 005°03'918.2
2018-May-20 20:00N 48°34' W 004°57'1121.9
2018-May-20 19:30N 48°45' W 004°51'1121.7
2018-May-20 19:00N 48°55' W 004°47'1122.1
2018-May-20 18:30N 49°06' W 004°42'1122.5
2018-May-20 18:00N 49°16' W 004°37'1122.8
2018-May-20 17:31N 49°27' W 004°31'3323.1
2018-May-20 16:05N 49°59' W 004°16'423.1
2018-May-20 15:53N 50°03' W 004°14'923.0
2018-May-20 15:30N 50°12' W 004°13'918.9
2018-May-20 15:00N 50°21' W 004°09'1 2.4
2018-May-20 14:30N 50°22' W 004°09'0 0.0
2018-May-20 14:00N 50°22' W 004°09'0 0.0
2018-May-20 13:30N 50°22' W 004°09'0 0.0
2018-May-20 13:00N 50°22' W 004°09'0 0.0
2018-May-20 12:30N 50°22' W 004°09'0 0.9
2018-May-20 12:00N 50°21' W 004°09'714.3
2018-May-20 11:30N 50°14' W 004°09'1223.5
2018-May-20 11:00N 50°03' W 004°07'1223.7
2018-May-20 10:30N 49°51' W 004°06'1523.7
2018-May-20 09:53N 49°36' W 004°03'1523.8
2018-May-20 09:14N 49°21' W 004°02'523.9
2018-May-20 09:00N 49°15' W 004°01'1223.7
2018-May-20 08:29N 49°03' W 003°59'1423.6
2018-May-20 07:54N 48°49' W 003°57'615.6
2018-May-20 07:30N 48°43' W 003°58'0 0.1
2018-May-20 04:46N 48°43' W 003°58'2 6.3
2018-May-20 04:30N 48°45' W 003°57'1020.1
2018-May-20 04:00N 48°53' W 004°07'1222.2
2018-May-20 03:29N 48°60' W 004°21'919.7
2018-May-20 03:00N 49°06' W 004°31'1020.0
2018-May-20 02:30N 49°13' W 004°42'1219.9
2018-May-20 01:55N 49°21' W 004°55'1319.8
2018-May-20 01:16N 49°29' W 005°10'519.8
2018-May-20 01:00N 49°33' W 005°16'1119.9
2018-May-20 00:26N 49°40' W 005°29'1020.0
2018-May-19 23:56N 49°47' W 005°41'1320.5
2018-May-19 23:19N 49°55' W 005°56'7620.1
2018-May-19 19:30N 50°58' W 007°03'1020.8
2018-May-19 19:00N 51°06' W 007°14'1020.8
2018-May-19 18:30N 51°13' W 007°26'1120.8
2018-May-19 18:00N 51°21' W 007°38'1120.8
2018-May-19 17:27N 51°29' W 007°51'920.7
2018-May-19 17:00N 51°35' W 008°01'1020.5
2018-May-19 16:30N 51°43' W 008°12'714.0
2018-May-19 16:01N 51°50' W 008°16'2 4.4
2018-May-19 15:31N 51°50' W 008°20'0 0.3
2018-May-19 15:01N 51°50' W 008°19'0 0.0
2018-May-19 14:31N 51°50' W 008°19'0 0.0
2018-May-19 14:01N 51°50' W 008°19'0 0.0
2018-May-19 13:30N 51°50' W 008°19'0 0.0
2018-May-19 13:00N 51°50' W 008°19'0 0.0
2018-May-19 12:30N 51°50' W 008°19'0 0.0
2018-May-19 12:01N 51°50' W 008°19'0 0.0
2018-May-19 11:31N 51°50' W 008°19'0 0.0
2018-May-19 11:00N 51°50' W 008°19'0 0.0
2018-May-19 10:31N 51°50' W 008°19'0 0.0
2018-May-19 10:01N 51°50' W 008°19'0 0.0
2018-May-19 09:30N 51°50' W 008°19'0 0.0
2018-May-19 09:01N 51°50' W 008°19'0 0.0
2018-May-19 08:31N 51°50' W 008°19'1 2.2
2018-May-19 08:00N 51°51' W 008°18'3 6.5
2018-May-19 07:31N 51°48' W 008°16'1019.6
2018-May-19 07:01N 51°40' W 008°06'1019.9
2018-May-19 06:30N 51°33' W 007°54'1020.5
2018-May-19 06:00N 51°27' W 007°42'1020.2
2018-May-19 05:30N 51°20' W 007°30'1020.2
2018-May-19 05:01N 51°13' W 007°18'1020.1
2018-May-19 04:31N 51°06' W 007°07'1020.2
2018-May-19 04:00N 50°58' W 006°56'1020.3
2018-May-19 03:30N 50°51' W 006°44'1020.2
2018-May-19 03:00N 50°44' W 006°33'1020.2
2018-May-19 02:30N 50°38' W 006°21'1020.1
2018-May-19 02:00N 50°31' W 006°09'1020.4
2018-May-19 01:30N 50°24' W 005°58'1019.9
2018-May-19 01:00N 50°14' W 005°54'1020.1
2018-May-19 00:31N 50°04' W 005°52'1019.1
2018-May-19 00:00N 49°56' W 005°45'1020.5
2018-May-18 23:30N 49°49' W 005°34'1120.3
2018-May-18 22:59N 49°41' W 005°22'1020.2
2018-May-18 22:30N 49°34' W 005°11'1020.3
2018-May-18 22:00N 49°28' W 004°59'1020.2
2018-May-18 21:30N 49°21' W 004°48'1019.9
2018-May-18 21:00N 49°14' W 004°37'1019.8
2018-May-18 20:30N 49°06' W 004°27'1019.5
2018-May-18 20:00N 48°59' W 004°16'919.3
2018-May-18 19:30N 48°53' W 004°06'1018.1
2018-May-18 18:57N 48°45' W 003°57'1 0.1
2018-May-18 07:59N 48°43' W 003°58'0 0.0
2018-May-18 07:29N 48°43' W 003°58'0 0.0
2018-May-18 06:14N 48°43' W 003°58'0 0.0
2018-May-18 05:59N 48°43' W 003°58'2 4.4
2018-May-18 05:26N 48°46' W 003°57'716.9
2018-May-18 05:00N 48°53' W 003°58'816.4
2018-May-18 04:31N 49°01' W 003°59'816.0
2018-May-18 04:00N 49°09' W 003°60'815.9
2018-May-18 03:31N 49°17' W 004°01'815.8
2018-May-18 03:00N 49°25' W 004°03'815.8
2018-May-18 02:30N 49°32' W 004°06'815.6
2018-May-18 02:00N 49°40' W 004°07'1116.1
2018-May-18 01:19N 49°51' W 004°07'616.2
2018-May-18 00:57N 49°57' W 004°08'816.1
2018-May-18 00:28N 50°05' W 004°08'715.8
2018-May-18 00:00N 50°12' W 004°09'2 3.2
2018-May-17 23:21N 50°14' W 004°10'1 0.6
2018-May-17 22:15N 50°14' W 004°09'0 0.3
2018-May-17 22:00N 50°14' W 004°09'0 0.2
2018-May-17 21:30N 50°14' W 004°09'0 0.3
2018-May-17 21:00N 50°14' W 004°09'2 4.5
2018-May-17 20:28N 50°17' W 004°09'4 8.8
2018-May-17 20:00N 50°21' W 004°09'1 2.2
2018-May-17 19:30N 50°22' W 004°09'0 0.0
2018-May-17 19:00N 50°22' W 004°09'0 0.0
2018-May-17 18:31N 50°22' W 004°09'0 0.0
2018-May-17 18:00N 50°22' W 004°09'0 0.0
2018-May-17 17:30N 50°22' W 004°09'0 0.0
2018-May-17 17:00N 50°22' W 004°09'0 0.0
2018-May-17 16:30N 50°22' W 004°09'0 0.2
2018-May-17 16:00N 50°22' W 004°09'3 6.4
2018-May-17 15:30N 50°19' W 004°10'1122.8
2018-May-17 15:01N 50°08' W 004°15'1622.8
2018-May-17 14:18N 49°52' W 004°22'722.6
2018-May-17 14:00N 49°46' W 004°25'1122.3
2018-May-17 13:30N 49°35' W 004°30'1222.1
2018-May-17 12:59N 49°24' W 004°35'1221.7
2018-May-17 12:27N 49°13' W 004°40'1021.5
2018-May-17 12:00N 49°04' W 004°44'1821.0
2018-May-17 11:08N 48°46' W 004°52'320.6
2018-May-17 11:00N 48°44' W 004°53'1020.4
2018-May-17 10:30N 48°34' W 004°57'917.7
2018-May-17 10:00N 48°26' W 005°03'1019.4
2018-May-17 09:30N 48°17' W 005°08'1121.8
2018-May-17 09:00N 48°06' W 005°10'1120.5
2018-May-17 08:28N 47°55' W 005°07'1121.7
2018-May-17 07:56N 47°44' W 005°04'24422.9
2018-May-16 21:16N 43°45' W 003°50'723.6
2018-May-16 20:57N 43°38' W 003°47'7 1.8
2018-May-16 17:09N 43°31' W 003°45'423.1
2018-May-16 17:00N 43°34' W 003°46'1223.4
2018-May-16 16:30N 43°46' W 003°50'26923.6
2018-May-16 05:08N 48°09' W 005°10'422.5
2018-May-16 04:57N 48°13' W 005°09'1022.0
2018-May-16 04:30N 48°23' W 005°06'917.5
2018-May-16 04:00N 48°29' W 004°58'1021.0
2018-May-16 03:30N 48°37' W 004°47'1020.0
2018-May-16 03:00N 48°44' W 004°37'3021.9
2018-May-16 01:39N 49°07' W 004°07'323.5
2018-May-16 01:30N 49°09' W 004°03'4624.2
2018-May-15 23:36N 49°44' W 003°18'224.3
2018-May-15 23:30N 49°46' W 003°15'1224.2
2018-May-15 23:01N 49°55' W 003°03'1223.1
2018-May-15 22:30N 50°01' W 002°47'1122.3
2018-May-15 22:00N 50°05' W 002°31'2120.7
2018-May-15 21:00N 50°13' W 002°01'1019.7
2018-May-15 20:30N 50°18' W 001°48'1019.7
2018-May-15 20:00N 50°23' W 001°34'1019.5
2018-May-15 19:30N 50°28' W 001°22'919.0
2018-May-15 19:00N 50°33' W 001°09'918.2
2018-May-15 18:30N 50°40' W 000°59'816.6
2018-May-15 18:00N 50°47' W 001°06'2 4.2
2018-May-15 17:30N 50°49' W 001°06'0 0.0
2018-May-15 17:00N 50°49' W 001°06'0 0.0
2018-May-15 16:30N 50°49' W 001°06'0 0.0
2018-May-15 16:00N 50°49' W 001°06'0 0.0
2018-May-15 15:30N 50°49' W 001°06'0 0.0
2018-May-15 15:00N 50°49' W 001°06'0 0.2
2018-May-15 14:31N 50°49' W 001°06'3 6.1
2018-May-15 14:00N 50°46' W 001°05'713.4
2018-May-15 13:30N 50°39' W 001°05'918.9
2018-May-15 13:00N 50°31' W 001°11'1019.9
2018-May-15 12:30N 50°23' W 001°22'1020.5
2018-May-15 12:00N 50°17' W 001°35'1121.3
2018-May-15 11:30N 50°10' W 001°48'1121.9
2018-May-15 11:00N 50°05' W 002°02'1122.7
2018-May-15 10:31N 49°59' W 002°18'1223.3
2018-May-15 10:00N 49°54' W 002°34'1223.4
2018-May-15 09:30N 49°49' W 002°50'1323.1
2018-May-15 08:58N 49°41' W 003°06'1123.4
2018-May-15 08:31N 49°34' W 003°18'1323.3
2018-May-15 07:57N 49°25' W 003°32'4123.4
2018-May-15 06:13N 48°57' W 004°16'1423.8
2018-May-15 05:37N 48°47' W 004°32'324.0
2018-May-15 05:29N 48°44' W 004°35'1124.1
2018-May-15 05:00N 48°37' W 004°48'1122.5
2018-May-15 04:30N 48°28' W 004°59'917.5
2018-May-15 04:01N 48°21' W 005°07'1223.8
2018-May-15 03:31N 48°09' W 005°10'1323.6
2018-May-15 02:59N 47°57' W 005°09'1123.5
2018-May-15 02:30N 47°46' W 005°06'1122.8
2018-May-15 02:00N 47°35' W 005°01'1222.9
2018-May-15 01:29N 47°23' W 004°57'1322.9
2018-May-15 00:55N 47°11' W 004°53'1122.9
2018-May-15 00:28N 47°00' W 004°49'1022.7
2018-May-15 00:00N 46°50' W 004°46'1122.8
2018-May-14 23:30N 46°39' W 004°43'18422.0
2018-May-14 15:06N 43°39' W 003°48'321.9
2018-May-14 14:59N 43°36' W 003°48'5 1.2
2018-May-14 10:54N 43°32' W 003°45'1222.7
2018-May-14 10:22N 43°43' W 003°50'25722.5
2018-May-13 22:58N 47°54' W 005°07'1120.6
2018-May-13 22:25N 48°05' W 005°10'819.4
2018-May-13 22:00N 48°13' W 005°08'1018.7
2018-May-13 21:30N 48°23' W 005°06'713.9
2018-May-13 21:01N 48°28' W 004°60'1122.1
2018-May-13 20:31N 48°38' W 004°54'1224.2
2018-May-13 20:01N 48°49' W 004°47'2423.3
2018-May-13 18:58N 49°12' W 004°35'5122.0
2018-May-13 16:40N 50°02' W 004°18'421.5
2018-May-13 16:28N 50°06' W 004°16'1121.7
2018-May-13 15:57N 50°17' W 004°11'511.4
2018-May-13 15:31N 50°22' W 004°09'0 0.1
2018-May-13 15:01N 50°22' W 004°09'0 0.0
2018-May-13 14:30N 50°22' W 004°09'0 0.0
2018-May-13 14:01N 50°22' W 004°09'0 0.0
2018-May-13 13:31N 50°22' W 004°09'0 0.0
2018-May-13 13:01N 50°22' W 004°09'0 0.3
2018-May-13 12:31N 50°22' W 004°09'4 7.4
2018-May-13 12:00N 50°18' W 004°10'1121.9
2018-May-13 11:30N 50°07' W 004°12'160 8.7
2018-May-12 17:05N 51°27' W 007°50'220.2
2018-May-12 17:01N 51°29' W 007°51'1019.5
2018-May-12 16:31N 51°36' W 008°01'1121.1
2018-May-12 16:00N 51°44' W 008°13'713.5
2018-May-12 15:30N 51°50' W 008°16'2 4.7
2018-May-12 15:00N 51°50' W 008°19'0 0.0
2018-May-12 14:30N 51°50' W 008°19'0 0.0
2018-May-12 14:00N 51°50' W 008°19'0 0.0
2018-May-12 13:30N 51°50' W 008°19'0 0.0
2018-May-12 13:00N 51°50' W 008°19'0 0.0
2018-May-12 12:30N 51°50' W 008°19'0 0.0
2018-May-12 12:00N 51°50' W 008°19'0 0.0
2018-May-12 11:30N 51°50' W 008°19'0 0.0
2018-May-12 11:00N 51°50' W 008°19'0 0.0
2018-May-12 10:30N 51°50' W 008°19'0 0.0
2018-May-12 10:00N 51°50' W 008°19'0 0.0
2018-May-12 09:30N 51°50' W 008°19'0 0.0
2018-May-12 09:00N 51°50' W 008°19'1 1.1
2018-May-12 08:30N 51°50' W 008°19'4 7.1
2018-May-12 08:00N 51°48' W 008°16'1019.6
2018-May-12 07:31N 51°40' W 008°07'919.0
2018-May-12 07:00N 51°33' W 007°55'1019.9
2018-May-12 06:30N 51°27' W 007°43'  

Dump ship's entire track history